Time;durP1;ratioP1;P1;durP2;ratioP2;P2;SDS_P1;SDS_P2;PMS_P1;PMS_P2;Temp;Humidity;BMP_temperature;BMP_pressure;BME280_temperature;BME280_humidity;BME280_pressure;Samples;Min_cycle;Max_cycle;Signal;HPM_P1;HPM_P2
2023/03/17 00:01:12;;;;;;;4.22;2.30;;;;;;;4.51;72.63;99234.13;4945616;29;19914;-73
2023/03/17 00:03:40;;;;;;;4.80;1.52;;;;;;;4.54;72.86;99278.75;4945571;28;20050;-74
2023/03/17 00:06:14;;;;;;;5.22;2.03;;;;;;;4.52;72.98;99266.66;4945331;28;20031;-72
2023/03/17 00:08:40;;;;;;;6.60;1.80;;;;;;;4.50;73.39;99311.75;4960870;28;20043;-74
2023/03/17 00:11:12;;;;;;;6.78;2.25;;;;;;;4.42;73.73;99319.63;4946770;29;20110;-73
2023/03/17 00:13:37;;;;;;;5.25;1.67;;;;;;;4.43;74.05;99342.47;4961493;28;20038;-72
2023/03/17 00:16:06;;;;;;;5.27;1.70;;;;;;;4.40;74.20;99364.75;4961595;28;20528;-73
2023/03/17 00:18:34;;;;;;;3.92;2.10;;;;;;;4.38;74.50;99379.09;4945288;28;20047;-73
2023/03/17 00:20:59;;;;;;;4.22;1.98;;;;;;;4.37;74.92;99401.19;4961427;28;20111;-72
2023/03/17 00:23:25;;;;;;;6.90;2.10;;;;;;;4.38;75.01;99408.16;4961790;28;20130;-74
2023/03/17 00:25:52;;;;;;;4.00;1.42;;;;;;;4.37;75.01;99417.06;4946773;29;20031;-74
2023/03/17 00:28:26;;;;;;;4.13;1.73;;;;;;;4.27;75.45;99405.78;4946666;29;20030;-74
2023/03/17 00:30:56;;;;;;;5.63;2.00;;;;;;;4.23;75.85;99432.47;4959571;28;20054;-74
2023/03/17 00:33:25;;;;;;;4.07;2.55;;;;;;;4.27;75.97;99458.63;4961223;28;20039;-74
2023/03/17 00:35:51;;;;;;;6.78;1.65;;;;;;;4.30;76.20;99485.53;4945126;28;20130;-73
2023/03/17 00:38:19;;;;;;;5.78;1.95;;;;;;;4.19;76.76;99457.56;4944980;29;20170;-72
2023/03/17 00:40:45;;;;;;;3.88;2.20;;;;;;;4.12;77.18;99480.28;4944969;28;20031;-72
2023/03/17 00:43:11;;;;;;;;;;;;;;;4.07;77.33;99479.91;4946071;28;20139;-74
2023/03/17 00:45:38;;;;;;;4.30;2.13;;;;;;;4.10;77.93;99528.97;4946477;28;20008;-73
2023/03/17 00:48:12;;;;;;;7.65;2.40;;;;;;;3.96;78.09;99503.91;4960945;28;20035;-74
2023/03/17 00:50:37;;;;;;;4.55;2.00;;;;;;;3.98;78.59;99549.47;4961086;28;20079;-74
2023/03/17 00:53:08;;;;;;;4.45;2.05;;;;;;;3.89;78.95;99545.09;4961181;28;20178;-73
2023/03/17 00:55:34;;;;;;;8.80;2.42;;;;;;;3.81;79.24;99549.28;4961070;28;20090;-71
2023/03/17 00:57:59;;;;;;;3.67;2.00;;;;;;;3.81;79.57;99591.53;4961034;28;20047;-73
2023/03/17 01:00:28;;;;;;;6.97;2.77;;;;;;;3.78;80.17;99620.06;4944817;29;20041;-72
2023/03/17 01:02:55;;;;;;;8.75;2.35;;;;;;;3.76;80.60;99636.03;4946079;28;20274;-74
2023/03/17 01:05:23;;;;;;;5.70;2.15;;;;;;;3.74;81.21;99668.84;4961129;28;20069;-74
2023/03/17 01:07:52;;;;;;;4.70;2.03;;;;;;;3.71;81.65;99679.69;4946224;29;20908;-71
2023/03/17 01:10:24;;;;;;;5.82;2.53;;;;;;;3.75;81.86;99728.59;4941339;28;20545;-73
2023/03/17 01:12:50;;;;;;;7.13;2.13;;;;;;;3.72;82.31;99724.44;4944637;28;20485;-74
2023/03/17 01:15:16;;;;;;;7.50;2.17;;;;;;;3.72;82.52;99713.88;4961030;28;20038;-73
2023/03/17 01:17:42;;;;;;;11.48;2.83;;;;;;;3.73;82.71;99702.31;4961125;28;20035;-72
2023/03/17 01:20:15;;;;;;;5.78;2.85;;;;;;;3.78;82.75;99708.00;4946054;28;20030;-72
2023/03/17 01:22:41;;;;;;;5.88;2.22;;;;;;;3.72;82.96;99679.56;4964372;28;20043;-74
2023/03/17 01:25:07;;;;;;;6.00;2.20;;;;;;;3.72;83.38;99692.75;4963272;28;20043;-74
2023/03/17 01:27:34;;;;;;;3.80;2.25;;;;;;;3.71;83.82;99700.81;4932698;29;20039;-74
2023/03/17 01:29:59;;;;;;;4.45;2.13;;;;;;;3.58;84.58;99699.31;4949311;28;20046;-73
2023/03/17 01:32:25;;;;;;;4.20;2.15;;;;;;;3.58;85.04;99746.84;4948571;29;20027;-74
2023/03/17 01:34:51;;;;;;;5.90;2.20;;;;;;;3.71;85.18;99778.19;4948190;28;20046;-73
2023/03/17 01:37:16;;;;;;;6.40;2.33;;;;;;;3.70;85.15;99747.50;4949537;29;20047;-74
2023/03/17 01:39:41;;;;;;;6.27;3.20;;;;;;;3.74;85.26;99762.06;4963918;28;20038;-74
2023/03/17 01:42:07;;;;;;;6.23;2.83;;;;;;;3.77;85.66;99775.00;4950959;28;20673;-73
2023/03/17 01:44:32;;;;;;;3.25;1.85;;;;;;;3.77;85.69;99753.06;4964396;28;20331;-73
2023/03/17 01:46:58;;;;;;;7.03;2.07;;;;;;;3.75;85.66;99739.97;4948078;28;20507;-74
2023/03/17 01:49:36;;;;;;;5.03;2.37;;;;;;;3.74;85.99;99758.59;4947761;29;20306;-73
2023/03/17 01:52:08;;;;;;;6.50;3.17;;;;;;;3.71;86.33;99745.69;4963296;28;20039;-72
2023/03/17 01:54:38;;;;;;;3.90;2.40;;;;;;;3.73;86.77;99759.59;4963347;28;20039;-71
2023/03/17 01:57:20;;;;;;;4.80;2.20;;;;;;;3.62;87.31;99744.72;4947853;29;20035;-72
2023/03/17 01:59:50;;;;;;;6.70;2.55;;;;;;;3.64;87.71;99778.91;4963589;28;20038;-74
2023/03/17 02:02:23;;;;;;;4.53;2.20;;;;;;;3.56;88.27;99772.53;4964237;28;20024;-74
2023/03/17 02:04:51;;;;;;;4.80;2.40;;;;;;;3.48;88.56;99780.31;4964092;28;20035;-71
2023/03/17 02:07:17;;;;;;;;;;;;;;;3.54;89.47;99824.63;4948396;29;20488;-70
2023/03/17 02:09:43;;;;;;;8.52;2.20;;;;;;;3.51;89.61;99827.56;4948409;28;19936;-72
2023/03/17 02:12:09;;;;;;;4.25;2.80;;;;;;;3.54;89.86;99837.00;4963874;28;20556;-74
2023/03/17 02:14:35;;;;;;;5.93;2.92;;;;;;;3.54;90.05;99831.72;4945967;28;20520;-71
2023/03/17 02:17:01;;;;;;;3.45;2.28;;;;;;;3.52;90.44;99828.38;4963455;28;20043;-72
2023/03/17 02:19:27;;;;;;;7.13;2.60;;;;;;;3.44;91.04;99851.97;4947157;29;20122;-70
2023/03/17 02:21:55;;;;;;;6.53;2.38;;;;;;;3.46;91.60;99879.06;4948835;28;20035;-72
2023/03/17 02:24:38;;;;;;;7.43;2.80;;;;;;;3.44;92.18;99879.22;4963421;28;20031;-71
2023/03/17 02:27:28;;;;;;;5.22;2.38;;;;;;;3.38;92.53;99891.16;4948072;29;20035;-72
2023/03/17 02:29:54;;;;;;;7.75;3.08;;;;;;;3.46;92.73;99897.53;4977011;28;20158;-74
2023/03/17 02:32:19;;;;;;;8.57;2.80;;;;;;;3.43;93.26;99885.44;4948232;28;20126;-72
2023/03/17 02:34:46;;;;;;;7.53;3.15;;;;;;;3.42;93.57;99885.56;4947326;28;20114;-71
2023/03/17 02:37:12;;;;;;;7.65;3.25;;;;;;;3.28;94.19;99855.19;4947138;28;20404;-72
2023/03/17 02:39:37;;;;;;;4.53;2.60;;;;;;;3.30;94.61;99885.72;4947981;28;20039;-74
2023/03/17 02:42:04;;;;;;;6.10;3.00;;;;;;;3.32;95.07;99888.22;4949805;28;20043;-70
2023/03/17 02:44:30;;;;;;;7.32;2.63;;;;;;;3.29;95.06;99878.78;4948438;28;20102;-71
2023/03/17 02:46:56;;;;;;;7.60;2.60;;;;;;;3.32;95.25;99886.41;4947062;28;20031;-71
2023/03/17 02:49:22;;;;;;;6.93;2.60;;;;;;;3.27;95.58;99867.50;4946505;29;20062;-71
2023/03/17 02:51:47;;;;;;;12.90;3.33;;;;;;;3.30;95.73;99885.72;4948110;29;20039;-71
2023/03/17 02:54:13;;;;;;;4.45;2.83;;;;;;;3.28;96.01;99878.94;4947903;28;20038;-71
2023/03/17 02:56:38;;;;;;;5.40;2.57;;;;;;;3.24;96.38;99867.81;4962954;28;20560;-74
2023/03/17 02:59:04;;;;;;;6.43;2.40;;;;;;;3.20;96.96;99887.50;4947571;28;20362;-73
2023/03/17 03:01:29;;;;;;;6.53;3.35;;;;;;;3.22;97.50;99911.94;4946692;29;20468;-71
2023/03/17 03:03:56;;;;;;;4.50;3.15;;;;;;;3.14;98.06;99911.81;4946520;28;20054;-72
2023/03/17 03:06:22;;;;;;;;;;;;;;;3.17;98.54;99951.91;4947221;29;20134;-70
2023/03/17 03:08:49;;;;;;;9.10;3.00;;;;;;;3.17;98.65;99956.38;4947253;28;20053;-71
2023/03/17 03:11:14;;;;;;;8.77;2.40;;;;;;;3.23;98.94;99976.09;4947916;28;20540;-72
2023/03/17 03:13:40;;;;;;;4.25;2.22;;;;;;;3.21;98.80;99933.16;4947791;28;20122;-71
2023/03/17 03:16:06;;;;;;;4.50;2.67;;;;;;;3.14;99.27;99909.16;4946636;28;20035;-71
2023/03/17 03:18:31;;;;;;;5.95;2.78;;;;;;;3.10;99.81;99924.41;4947289;29;20031;-71
2023/03/17 03:20:57;;;;;;;6.10;3.95;;;;;;;3.15;100.00;99958.28;4930427;29;20074;-72
2023/03/17 03:23:23;;;;;;;6.32;3.28;;;;;;;3.24;100.00;99983.88;4947436;28;20465;-73
2023/03/17 03:25:48;;;;;;;11.25;4.03;;;;;;;3.23;100.00;99944.44;4947699;29;20921;-72
2023/03/17 03:28:13;;;;;;;7.20;3.70;;;;;;;3.16;100.00;99936.22;4947685;28;20058;-74
2023/03/17 03:30:39;;;;;;;6.17;3.10;;;;;;;3.13;100.00;99916.22;4946313;29;20515;-72
2023/03/17 03:33:05;;;;;;;6.25;2.95;;;;;;;3.14;100.00;99914.44;4947300;28;21063;-71
2023/03/17 03:35:31;;;;;;;7.38;4.10;;;;;;;3.26;100.00;99934.44;4946160;28;20118;-70
2023/03/17 03:37:57;;;;;;;6.65;3.00;;;;;;;3.18;100.00;99899.97;4947459;28;20041;-70
2023/03/17 03:40:24;;;;;;;11.00;3.50;;;;;;;3.27;100.00;99901.81;4946964;29;20027;-71
2023/03/17 03:42:49;;;;;;;9.20;2.85;;;;;;;3.26;100.00;99881.69;4946925;28;20079;-72
2023/03/17 03:45:15;;;;;;;4.80;2.90;;;;;;;3.27;100.00;99878.06;4961612;28;20443;-71
2023/03/17 03:47:40;;;;;;;6.15;3.35;;;;;;;3.26;100.00;99891.41;4947119;29;20035;-71
2023/03/17 03:50:07;;;;;;;8.55;3.22;;;;;;;3.29;100.00;99902.50;4946722;28;20034;-71
2023/03/17 03:52:33;;;;;;;6.03;3.05;;;;;;;3.30;100.00;99905.97;4947044;29;20089;-71
2023/03/17 03:54:59;;;;;;;5.88;3.30;;;;;;;3.29;100.00;99912.25;4961936;28;20042;-73
2023/03/17 03:57:24;;;;;;;5.95;3.45;;;;;;;3.27;100.00;99920.28;4947225;29;20477;-71
2023/03/17 03:59:49;;;;;;;7.97;3.63;;;;;;;3.24;100.00;99894.19;4945280;29;20043;-70
2023/03/17 04:02:15;;;;;;;5.72;3.30;;;;;;;3.23;100.00;99903.06;4946799;28;20035;-70
2023/03/17 04:04:41;;;;;;;6.53;2.88;;;;;;;3.26;100.00;99897.53;4945464;28;20485;-71
2023/03/17 04:07:08;;;;;;;6.18;3.33;;;;;;;3.26;100.00;99879.06;4945504;28;20037;-71
2023/03/17 04:09:34;;;;;;;8.50;3.25;;;;;;;3.27;100.00;99880.72;4961548;28;20189;-73
2023/03/17 04:11:59;;;;;;;10.35;3.83;;;;;;;3.30;100.00;99898.94;4961565;28;20179;-71
2023/03/17 04:14:24;;;;;;;6.70;3.28;;;;;;;3.29;100.00;99891.13;4946576;28;20035;-71
2023/03/17 04:16:50;;;;;;;9.13;3.60;;;;;;;3.25;100.00;99914.31;4946419;29;20043;-71
2023/03/17 04:19:15;;;;;;;7.70;2.93;;;;;;;3.32;100.00;99907.50;4946332;28;20656;-71
2023/03/17 04:21:41;;;;;;;7.47;3.30;;;;;;;3.23;100.00;99875.84;4946552;29;20086;-72
2023/03/17 04:24:07;;;;;;;6.50;3.03;;;;;;;3.25;100.00;99877.38;4945473;28;20035;-72
2023/03/17 04:26:33;;;;;;;7.18;3.67;;;;;;;3.21;100.00;99852.25;4945577;28;20587;-71
2023/03/17 04:28:59;;;;;;;5.43;3.40;;;;;;;3.23;100.00;99860.88;4946220;28;20038;-74
2023/03/17 04:31:24;;;;;;;6.75;3.60;;;;;;;3.30;100.00;99863.75;4946680;29;20023;-72
2023/03/17 04:33:50;;;;;;;5.90;3.67;;;;;;;3.30;100.00;99837.38;4945138;28;20120;-71
2023/03/17 04:36:21;;;;;;;5.07;3.53;;;;;;;3.29;100.00;99819.91;4947766;28;20499;-71
2023/03/17 04:38:46;;;;;;;6.82;3.65;;;;;;;3.31;100.00;99825.88;4946023;29;20291;-71
2023/03/17 04:41:12;;;;;;;11.13;4.05;;;;;;;3.29;100.00;99826.00;4961649;28;20086;-72
2023/03/17 04:43:38;;;;;;;7.95;3.90;;;;;;;3.30;100.00;99801.31;4946581;28;20356;-71
2023/03/17 04:46:03;;;;;;;8.85;3.35;;;;;;;3.26;100.00;99791.16;4945237;29;20107;-73
2023/03/17 04:48:28;;;;;;;8.20;3.80;;;;;;;3.29;100.00;99770.59;4946424;28;20063;-73
2023/03/17 04:50:54;;;;;;;5.17;3.57;;;;;;;3.24;100.00;99790.47;4946315;28;20074;-72
2023/03/17 04:53:19;;;;;;;6.63;4.68;;;;;;;3.22;100.00;99827.53;4961008;28;20357;-72
2023/03/17 04:55:45;;;;;;;7.97;5.07;;;;;;;3.24;100.00;99851.97;4948787;28;20035;-71
2023/03/17 04:58:10;;;;;;;5.78;3.67;;;;;;;3.24;100.00;99830.03;4950189;28;20031;-71
2023/03/17 05:00:37;;;;;;;7.63;3.63;;;;;;;3.19;100.00;99843.63;4950095;29;20042;-71
2023/03/17 05:03:05;;;;;;;7.13;3.67;;;;;;;3.22;100.00;99876.81;4950208;28;20016;-70
2023/03/17 05:05:31;;;;;;;7.13;3.80;;;;;;;3.17;100.00;99856.13;4951371;28;20039;-71
2023/03/17 05:07:57;;;;;;;8.90;3.80;;;;;;;3.17;100.00;99856.97;4948878;28;20074;-71
2023/03/17 05:10:22;;;;;;;6.45;3.30;;;;;;;3.16;100.00;99884.31;4948423;29;20106;-71
2023/03/17 05:12:48;;;;;;;6.65;3.85;;;;;;;3.15;100.00;99887.91;4949803;29;20034;-73
2023/03/17 05:15:13;;;;;;;6.43;4.20;;;;;;;3.11;100.00;99889.16;4964245;28;20204;-72
2023/03/17 05:17:38;;;;;;;7.43;4.10;;;;;;;3.10;100.00;99881.38;4964759;28;20346;-72
2023/03/17 05:20:04;;;;;;;9.97;3.80;;;;;;;3.09;100.00;99877.06;4949507;28;20275;-71
2023/03/17 05:22:30;;;;;;;18.98;4.40;;;;;;;3.13;100.00;99871.38;4949968;29;20035;-72
2023/03/17 05:24:55;;;;;;;7.80;4.13;;;;;;;3.07;100.00;99855.28;4948527;28;20035;-71
2023/03/17 05:27:22;;;;;;;8.47;4.37;;;;;;;3.15;100.00;99881.81;4949760;29;20034;-71
2023/03/17 05:29:47;;;;;;;8.23;3.90;;;;;;;3.09;100.00;99869.16;4947919;29;20047;-74
2023/03/17 05:32:13;;;;;;;5.00;3.07;;;;;;;3.09;100.00;99879.69;4949765;28;20064;-73
2023/03/17 05:34:38;;;;;;;12.82;3.78;;;;;;;3.12;100.00;99885.53;4948419;28;20286;-72
2023/03/17 05:37:04;;;;;;;8.45;3.83;;;;;;;3.08;100.00;99867.50;4927366;28;20055;-71
2023/03/17 05:39:30;;;;;;;9.23;3.63;;;;;;;3.09;100.00;99882.34;4944275;28;63547;-71
2023/03/17 05:41:56;;;;;;;6.30;3.63;;;;;;;3.02;100.00;99875.94;4949412;28;20374;-71
2023/03/17 05:44:21;;;;;;;8.05;4.05;;;;;;;3.03;100.00;99899.53;4964005;28;20042;-72
2023/03/17 05:46:46;;;;;;;6.63;4.27;;;;;;;3.03;100.00;99907.47;4949334;29;20503;-72
2023/03/17 05:49:12;;;;;;;9.43;4.13;;;;;;;2.99;100.00;99913.97;4963710;28;20413;-70
2023/03/17 05:51:37;;;;;;;7.80;3.65;;;;;;;2.99;100.00;99936.88;4949508;29;20481;-74
2023/03/17 05:54:03;;;;;;;8.15;4.20;;;;;;;2.95;100.00;99950.31;4949219;28;20063;-71
2023/03/17 05:56:32;;;;;;;11.68;4.28;;;;;;;2.93;100.00;99970.72;4980391;28;20125;-71
2023/03/17 05:58:59;;;;;;;6.65;4.03;;;;;;;2.94;100.00;99969.72;4949164;28;20093;-74
2023/03/17 06:01:26;;;;;;;7.80;4.15;;;;;;;2.95;100.00;99995.16;4949395;28;20031;-72
2023/03/17 06:03:51;;;;;;;8.43;3.88;;;;;;;2.97;100.00;99992.38;4979665;28;20517;-71
2023/03/17 06:06:17;;;;;;;8.10;4.07;;;;;;;2.96;100.00;99995.97;4963642;28;20520;-71
2023/03/17 06:08:43;;;;;;;7.53;4.15;;;;;;;2.95;100.00;100005.69;4948970;29;20509;-72
2023/03/17 06:11:09;;;;;;;10.85;4.70;;;;;;;2.99;100.00;100006.25;4963873;28;20098;-71
2023/03/17 06:13:34;;;;;;;9.37;3.77;;;;;;;3.03;100.00;99986.56;4947782;28;20035;-72
2023/03/17 06:15:59;;;;;;;7.50;3.77;;;;;;;3.11;100.00;99973.56;4948949;29;20366;-73
2023/03/17 06:18:25;;;;;;;11.80;5.20;;;;;;;3.09;100.00;99967.59;4948648;28;20069;-71
2023/03/17 06:20:50;;;;;;;11.47;4.00;;;;;;;3.27;100.00;100004.69;4979869;28;20071;-71
2023/03/17 06:23:17;;;;;;;9.25;4.97;;;;;;;3.26;100.00;99950.28;4963395;28;20164;-72
2023/03/17 06:25:43;;;;;;;6.53;3.47;;;;;;;3.32;100.00;99941.81;4948875;28;20488;-72
2023/03/17 06:28:09;;;;;;;5.82;4.13;;;;;;;3.36;100.00;99908.09;4948441;28;20035;-72
2023/03/17 06:30:35;;;;;;;8.05;4.38;;;;;;;3.45;100.00;99917.81;4979372;28;20046;-71
2023/03/17 06:33:01;;;;;;;9.20;4.72;;;;;;;3.29;100.00;99844.47;4948205;28;20070;-71
2023/03/17 06:35:27;;;;;;;8.15;4.10;;;;;;;3.35;100.00;99865.03;4948601;28;20031;-72
2023/03/17 06:37:52;;;;;;;4.53;3.13;;;;;;;3.44;100.00;99862.53;4963382;28;20043;-74
2023/03/17 06:40:18;;;;;;;8.93;4.07;;;;;;;3.50;100.00;99846.16;4955852;28;20117;-73
2023/03/17 06:42:43;;;;;;;9.77;4.75;;;;;;;3.38;100.00;99822.53;4947666;28;20389;-72
2023/03/17 06:45:09;;;;;;;8.00;4.20;;;;;;;3.33;100.00;99822.13;4963001;28;20519;-73
2023/03/17 06:47:36;;;;;;;6.68;4.45;;;;;;;3.33;100.00;99866.16;4947690;28;20073;-74
2023/03/17 06:50:03;;;;;;;18.13;4.78;;;;;;;3.43;100.00;99900.47;4946070;28;20119;-71
2023/03/17 06:52:28;;;;;;;8.60;4.15;;;;;;;3.52;100.00;99902.28;4979217;28;20043;-72
2023/03/17 06:54:53;;;;;;;7.10;4.05;;;;;;;3.55;100.00;99855.31;4948186;28;20405;-71
2023/03/17 06:57:19;;;;;;;8.70;4.53;;;;;;;3.75;100.00;99919.50;4962739;28;20042;-71
2023/03/17 06:59:45;;;;;;;8.63;4.33;;;;;;;4.01;100.00;99906.56;4947734;28;20453;-71
2023/03/17 07:02:10;;;;;;;8.80;3.95;;;;;;;4.18;100.00;99862.75;4962936;28;20039;-70
2023/03/17 07:04:37;;;;;;;6.38;3.67;;;;;;;4.30;100.00;99748.94;4947821;28;20081;-71
2023/03/17 07:07:04;;;;;;;;;;;;;;;4.38;100.00;99733.22;4948597;28;20058;-73
2023/03/17 07:09:32;;;;;;;7.55;4.18;;;;;;;4.05;100.00;99573.47;4947584;28;20056;-71
2023/03/17 07:11:57;;;;;;;7.97;4.75;;;;;;;4.05;100.00;99636.88;4946442;29;20503;-72
2023/03/17 07:14:23;;;;;;;13.93;4.25;;;;;;;4.25;100.00;99656.91;4947734;28;20058;-71
2023/03/17 07:16:48;;;;;;;8.97;4.23;;;;;;;4.24;100.00;99583.94;4962448;28;20412;-70
2023/03/17 07:19:14;;;;;;;9.88;4.82;;;;;;;4.37;100.00;99646.97;4946546;28;20656;-71
2023/03/17 07:21:39;;;;;;;10.23;4.50;;;;;;;4.53;100.00;99611.94;4947604;29;20043;-71
2023/03/17 07:24:05;;;;;;;7.43;4.87;;;;;;;4.98;100.00;99648.00;4962358;28;20023;-71
2023/03/17 07:26:30;;;;;;;13.27;4.83;;;;;;;5.21;100.00;99514.22;4962318;28;20047;-70
2023/03/17 07:28:55;;;;;;;8.33;3.90;;;;;;;5.02;100.00;99433.28;4947054;28;20283;-71
2023/03/17 07:31:22;;;;;;;9.07;4.80;;;;;;;5.17;99.61;99403.56;4962422;28;20035;-70
2023/03/17 07:33:47;;;;;;;7.78;4.32;;;;;;;5.43;99.33;99478.44;4961988;28;20113;-74
2023/03/17 07:36:14;;;;;;;10.07;5.33;;;;;;;5.70;97.58;99403.19;4946429;28;20485;-73
2023/03/17 07:38:40;;;;;;;6.93;3.63;;;;;;;5.88;96.65;99354.56;4946856;29;20053;-71
2023/03/17 07:41:08;;;;;;;6.28;3.90;;;;;;;5.92;95.81;99314.31;4947286;28;20070;-71
2023/03/17 07:43:34;;;;;;;8.88;4.13;;;;;;;5.92;93.83;99112.16;4947601;28;20031;-71
2023/03/17 07:46:00;;;;;;;12.60;5.75;;;;;;;5.69;93.73;99077.69;4978321;28;20564;-71
2023/03/17 07:48:25;;;;;;;7.80;4.55;;;;;;;5.46;93.30;98985.78;4947130;28;20102;-70
2023/03/17 07:50:51;;;;;;;16.58;4.30;;;;;;;5.90;93.34;99151.25;4978216;28;20139;-71
2023/03/17 07:53:17;;;;;;;17.97;5.63;;;;;;;6.04;92.76;99121.44;4961922;28;20078;-71
2023/03/17 07:55:42;;;;;;;9.93;4.85;;;;;;;5.99;91.71;99019.59;4945869;28;20423;-73
2023/03/17 07:58:08;;;;;;;10.30;4.53;;;;;;;5.86;91.74;99018.31;4961773;28;20039;-71
2023/03/17 08:00:33;;;;;;;9.60;4.33;;;;;;;5.97;91.72;99041.00;4961953;28;20609;-71
2023/03/17 08:02:59;;;;;;;8.98;4.07;;;;;;;5.80;91.78;99034.91;4946927;28;20035;-71
2023/03/17 08:05:24;;;;;;;7.35;4.50;;;;;;;5.56;91.64;98950.31;4947996;28;20027;-71
2023/03/17 08:07:50;;;;;;;8.43;4.57;;;;;;;5.65;92.29;99082.47;4946870;28;20047;-70
2023/03/17 08:10:15;;;;;;;9.07;4.37;;;;;;;5.62;91.94;99036.97;4961097;28;20027;-72
2023/03/17 08:12:41;;;;;;;10.77;4.82;;;;;;;5.95;91.79;99148.09;4961577;28;20150;-71
2023/03/17 08:15:08;;;;;;;11.73;4.55;;;;;;;6.29;90.55;99095.59;4976403;28;20565;-74
2023/03/17 08:17:33;;;;;;;;;;;;;;;6.60;89.71;99085.94;4978336;28;20035;-72
2023/03/17 08:19:59;;;;;;;9.93;4.47;;;;;;;6.82;89.34;99103.69;4961248;28;20467;-71
2023/03/17 08:22:24;;;;;;;9.40;4.80;;;;;;;7.54;87.35;99143.00;4947007;28;20469;-71
2023/03/17 08:24:50;;;;;;;9.40;4.30;;;;;;;7.68;86.23;98978.47;4977347;28;20043;-72
2023/03/17 08:27:15;;;;;;;9.77;4.50;;;;;;;7.48;85.32;98801.19;4946731;28;20158;-71
2023/03/17 08:29:41;;;;;;;7.88;4.10;;;;;;;8.06;83.50;98801.03;4946106;28;20131;-71
2023/03/17 08:32:07;;;;;;;6.70;4.75;;;;;;;8.71;83.55;98997.69;4946957;28;20085;-71
2023/03/17 08:34:33;;;;;;;5.85;3.80;;;;;;;8.80;80.38;98597.41;4947018;28;20078;-73
2023/03/17 08:37:00;;;;;;;9.18;4.18;;;;;;;7.98;79.96;98285.69;4961490;28;20078;-71
2023/03/17 08:39:26;;;;;;;5.35;3.85;;;;;;;8.31;81.33;98668.50;4960849;28;20039;-72
2023/03/17 08:41:51;;;;;;;7.63;4.50;;;;;;;8.68;80.78;98738.19;4946636;29;20058;-71
2023/03/17 08:44:17;;;;;;;6.75;4.13;;;;;;;8.90;79.05;98563.25;4946790;28;20225;-73
2023/03/17 08:46:42;;;;;;;5.87;4.57;;;;;;;9.01;78.86;98589.25;4946710;28;20038;-75
2023/03/17 08:49:09;;;;;;;7.28;4.75;;;;;;;8.13;78.22;98193.28;4946407;28;20031;-71
2023/03/17 08:51:37;;;;;;;6.53;4.45;;;;;;;8.59;78.09;98398.94;4977564;28;20093;-70
2023/03/17 08:54:04;;;;;;;8.55;4.20;;;;;;;9.18;78.34;98629.59;4961006;28;20042;-73
2023/03/17 08:56:30;;;;;;;10.57;4.60;;;;;;;9.48;75.92;98376.09;4977665;28;20090;-71
2023/03/17 08:58:55;;;;;;;6.05;3.75;;;;;;;9.21;76.01;98370.91;4977504;28;20027;-71
2023/03/17 09:01:23;;;;;;;9.35;4.25;;;;;;;10.10;75.59;98590.44;4947434;28;20038;-71
2023/03/17 09:03:53;;;;;;;6.05;4.15;;;;;;;10.39;73.71;98409.56;4961809;28;20043;-72
2023/03/17 09:06:20;;;;;;;8.40;3.85;;;;;;;9.97;72.25;98046.72;4947459;28;20031;-72
2023/03/17 09:08:46;;;;;;;6.40;4.47;;;;;;;9.63;73.30;98107.59;4946592;28;20039;-71
2023/03/17 09:11:17;;;;;;;11.65;4.57;;;;;;;9.00;74.50;98137.81;4962312;28;20070;-71
2023/03/17 09:13:45;;;;;;;6.05;4.18;;;;;;;8.66;75.32;98147.03;4946917;28;20519;-73
2023/03/17 09:16:11;;;;;;;10.23;4.28;;;;;;;8.23;75.13;98028.03;4962003;28;20015;-71
2023/03/17 09:18:37;;;;;;;7.03;4.05;;;;;;;8.62;76.39;98382.56;4961656;28;20043;-71
2023/03/17 09:21:03;;;;;;;8.90;4.35;;;;;;;8.35;77.07;98387.06;4947326;28;20043;-73
2023/03/17 09:23:29;;;;;;;6.57;3.65;;;;;;;8.08;77.36;98327.78;4946578;28;20083;-71
2023/03/17 09:25:56;;;;;;;12.25;4.80;;;;;;;8.22;78.13;98518.16;4977294;28;20078;-72
2023/03/17 09:28:22;;;;;;;7.43;4.43;;;;;;;8.34;77.96;98544.97;4976679;28;20715;-73
2023/03/17 09:30:48;;;;;;;;;;;;;;;8.38;77.95;98562.97;4945367;29;20057;-73
2023/03/17 09:33:13;;;;;;;;;;;;;;;8.46;78.77;98649.75;4946242;28;19923;-71
2023/03/17 09:35:39;;;;;;;9.98;3.50;;;;;;;8.50;78.12;98602.28;4946023;29;19949;-72
2023/03/17 09:38:06;;;;;;;7.15;4.22;;;;;;;8.82;77.96;98696.50;4976649;28;20053;-71
2023/03/17 09:40:38;;;;;;;8.52;4.95;;;;;;;8.61;77.45;98545.84;4976809;28;20079;-72
2023/03/17 09:43:23;;;;;;;6.90;4.75;;;;;;;8.98;77.67;98692.63;4963537;28;20030;-72
2023/03/17 09:45:50;;;;;;;6.75;4.30;;;;;;;8.57;77.17;98468.31;4964307;28;20099;-72
2023/03/17 09:48:27;;;;;;;7.93;4.70;;;;;;;9.16;77.98;98790.56;4963609;28;20035;-71
2023/03/17 09:51:09;;;;;;;7.82;4.40;;;;;;;9.12;77.27;98654.34;4980405;28;20035;-75
2023/03/17 09:53:55;;;;;;;9.43;5.47;;;;;;;9.86;76.39;98810.53;4946936;28;20424;-73
2023/03/17 09:56:22;;;;;;;10.02;4.72;;;;;;;9.46;75.49;98495.38;4964274;28;20035;-71
2023/03/17 09:59:32;;;;;;;9.65;4.63;;;;;;;9.98;75.44;98682.75;4948629;29;20082;-74
2023/03/17 10:01:58;;;;;;;7.10;4.20;;;;;;;9.98;75.60;98703.28;4962715;28;20043;-72
2023/03/17 10:04:23;;;;;;;9.80;4.60;;;;;;;9.82;75.16;98564.09;4947608;28;20042;-72
2023/03/17 10:06:50;;;;;;;9.18;5.28;;;;;;;9.65;74.72;98427.88;4964053;28;20070;-71
2023/03/17 10:09:25;;;;;;;9.68;4.82;;;;;;;10.06;75.50;98738.50;4963238;28;20451;-72
2023/03/17 10:12:07;;;;;;;9.25;4.78;;;;;;;9.62;75.24;98516.22;4949258;28;20109;-72
2023/03/17 10:14:40;;;;;;;8.20;5.05;;;;;;;9.88;75.49;98645.03;4964532;28;20047;-75
2023/03/17 10:17:17;;;;;;;10.63;4.70;;;;;;;9.25;75.42;98422.72;4949620;28;20370;-71
2023/03/17 10:20:01;;;;;;;8.38;4.82;;;;;;;9.11;76.12;98516.97;4949175;28;20070;-74
2023/03/17 10:22:37;;;;;;;8.80;4.22;;;;;;;9.26;76.48;98621.38;4964515;28;20031;-71
2023/03/17 10:25:11;;;;;;;9.73;4.80;;;;;;;9.01;76.65;98556.47;4949563;28;20035;-74
2023/03/17 10:27:37;;;;;;;8.00;4.20;;;;;;;8.78;76.83;98515.16;4949604;28;20106;-74
2023/03/17 10:30:18;;;;;;;10.77;5.07;;;;;;;8.99;77.74;98720.88;4962676;28;20027;-72
2023/03/17 10:32:45;;;;;;;9.57;4.90;;;;;;;9.38;77.78;98877.25;4948307;29;20035;-72
2023/03/17 10:35:11;;;;;;;8.52;4.43;;;;;;;9.65;77.14;98856.84;4947097;28;20539;-72
2023/03/17 10:37:36;;;;;;;9.60;5.47;;;;;;;9.64;76.98;98817.06;4979180;28;20039;-71
2023/03/17 10:40:09;;;;;;;9.43;4.57;;;;;;;9.81;77.01;98881.44;4948859;28;20034;-72
2023/03/17 10:42:44;;;;;;;8.50;4.38;;;;;;;9.48;77.06;98770.31;4949339;28;20081;-72
2023/03/17 10:45:23;;;;;;;7.88;4.50;;;;;;;9.45;77.28;98763.56;4963940;28;20035;-73
2023/03/17 10:47:49;;;;;;;7.50;4.53;;;;;;;9.57;77.32;98838.38;4949027;28;20134;-71
2023/03/17 10:50:15;;;;;;;7.15;4.72;;;;;;;9.97;77.21;98974.34;4948847;28;20109;-72
2023/03/17 10:52:41;;;;;;;8.10;4.63;;;;;;;10.24;76.56;98937.91;4963754;28;20032;-71
2023/03/17 10:55:12;;;;;;;6.55;4.30;;;;;;;10.18;75.59;98770.69;4963531;28;20035;-74
2023/03/17 10:57:38;;;;;;;7.20;4.20;;;;;;;10.64;75.53;98937.91;4948482;28;20524;-74
2023/03/17 11:00:13;;;;;;;6.57;4.00;;;;;;;11.05;74.76;98952.84;4948415;28;20074;-71
2023/03/17 11:02:46;;;;;;;7.57;3.87;;;;;;;11.07;74.32;98837.78;4949188;28;20059;-74
2023/03/17 11:05:23;;;;;;;6.93;4.32;;;;;;;11.59;73.24;98876.78;4962757;28;20031;-71
2023/03/17 11:07:55;;;;;;;7.43;4.45;;;;;;;10.98;72.31;98456.22;4978875;28;20035;-72
2023/03/17 11:10:24;;;;;;;10.05;4.90;;;;;;;10.85;72.27;98435.00;4943433;29;20035;-71
2023/03/17 11:13:00;;;;;;;8.98;4.93;;;;;;;11.17;72.29;98581.78;4947172;29;20031;-71
2023/03/17 11:15:34;;;;;;;7.57;4.85;;;;;;;11.22;72.34;98587.28;4944142;29;20093;-71
2023/03/17 11:18:12;;;;;;;7.63;4.72;;;;;;;11.59;71.87;98670.19;4961562;28;20481;-72
2023/03/17 11:20:48;;;;;;;6.63;4.22;;;;;;;11.22;71.44;98435.03;4946578;28;20136;-74
2023/03/17 11:23:38;;;;;;;6.93;4.30;;;;;;;11.45;72.59;98701.53;4946559;28;20527;-72
2023/03/17 11:26:16;;;;;;;7.43;4.55;;;;;;;11.44;72.33;98646.44;4947187;29;20031;-72
2023/03/17 11:28:56;;;;;;;9.48;4.38;;;;;;;11.64;71.52;98622.22;4978370;28;20035;-73
2023/03/17 11:31:27;;;;;;;8.55;4.40;;;;;;;11.74;71.59;98646.56;4943416;28;20045;-71
2023/03/17 11:34:07;;;;;;;7.40;4.30;;;;;;;11.27;71.12;98383.59;4946838;28;20082;-73
2023/03/17 11:36:57;;;;;;;7.03;4.40;;;;;;;11.31;71.64;98527.19;4944846;29;20412;-72
2023/03/17 11:39:35;;;;;;;6.55;4.35;;;;;;;11.23;71.62;98498.06;4942993;29;20087;-72
2023/03/17 11:42:12;;;;;;;8.63;4.70;;;;;;;11.07;72.29;98501.31;4960911;28;20031;-72